sensor_id;sensor_type;location;lat;lon;timestamp;temperature;humidity
14487;DHT22;7329;50.866;4.366;2022-12-18T00:01:59;14.40;74.80
14487;DHT22;7329;50.866;4.366;2022-12-18T00:04:07;14.40;74.40
14487;DHT22;7329;50.866;4.366;2022-12-18T00:06:10;14.40;74.60
14487;DHT22;7329;50.866;4.366;2022-12-18T00:08:12;14.40;74.80
14487;DHT22;7329;50.866;4.366;2022-12-18T00:10:15;14.40;74.70
14487;DHT22;7329;50.866;4.366;2022-12-18T00:12:17;14.40;74.70
14487;DHT22;7329;50.866;4.366;2022-12-18T00:14:19;14.40;74.60
14487;DHT22;7329;50.866;4.366;2022-12-18T00:16:24;14.30;74.80
14487;DHT22;7329;50.866;4.366;2022-12-18T00:18:26;14.40;74.70
14487;DHT22;7329;50.866;4.366;2022-12-18T00:20:30;14.40;74.30
14487;DHT22;7329;50.866;4.366;2022-12-18T00:22:32;14.30;74.50
14487;DHT22;7329;50.866;4.366;2022-12-18T00:24:34;14.40;74.40
14487;DHT22;7329;50.866;4.366;2022-12-18T00:26:38;14.40;74.20
14487;DHT22;7329;50.866;4.366;2022-12-18T00:28:40;14.30;74.40
14487;DHT22;7329;50.866;4.366;2022-12-18T00:30:43;14.30;74.30
14487;DHT22;7329;50.866;4.366;2022-12-18T00:32:45;14.30;74.20
14487;DHT22;7329;50.866;4.366;2022-12-18T00:34:47;14.30;74.30
14487;DHT22;7329;50.866;4.366;2022-12-18T00:36:51;14.30;74.40
14487;DHT22;7329;50.866;4.366;2022-12-18T00:38:54;14.30;74.40
14487;DHT22;7329;50.866;4.366;2022-12-18T00:40:57;14.30;74.10
14487;DHT22;7329;50.866;4.366;2022-12-18T00:42:59;14.30;75.20
14487;DHT22;7329;50.866;4.366;2022-12-18T00:45:00;14.30;74.00
14487;DHT22;7329;50.866;4.366;2022-12-18T00:47:03;14.30;74.00
14487;DHT22;7329;50.866;4.366;2022-12-18T00:49:05;14.30;74.10
14487;DHT22;7329;50.866;4.366;2022-12-18T00:51:07;14.30;74.40
14487;DHT22;7329;50.866;4.366;2022-12-18T00:53:11;14.20;74.70
14487;DHT22;7329;50.866;4.366;2022-12-18T00:55:14;14.30;74.50
14487;DHT22;7329;50.866;4.366;2022-12-18T00:57:17;14.30;74.00
14487;DHT22;7329;50.866;4.366;2022-12-18T00:59:19;14.30;74.30
14487;DHT22;7329;50.866;4.366;2022-12-18T01:01:22;14.30;74.20
14487;DHT22;7329;50.866;4.366;2022-12-18T01:03:24;14.20;73.90
14487;DHT22;7329;50.866;4.366;2022-12-18T01:05:27;14.20;73.90
14487;DHT22;7329;50.866;4.366;2022-12-18T01:07:29;14.20;74.40
14487;DHT22;7329;50.866;4.366;2022-12-18T01:09:33;14.20;74.00
14487;DHT22;7329;50.866;4.366;2022-12-18T01:11:35;14.20;73.90
14487;DHT22;7329;50.866;4.366;2022-12-18T01:13:38;14.20;74.00
14487;DHT22;7329;50.866;4.366;2022-12-18T01:15:48;14.20;73.80
14487;DHT22;7329;50.866;4.366;2022-12-18T01:17:55;14.20;73.80
14487;DHT22;7329;50.866;4.366;2022-12-18T01:19:57;14.20;73.90
14487;DHT22;7329;50.866;4.366;2022-12-18T01:22:00;14.20;73.50
14487;DHT22;7329;50.866;4.366;2022-12-18T01:24:02;14.20;73.60
14487;DHT22;7329;50.866;4.366;2022-12-18T01:26:07;14.20;73.80
14487;DHT22;7329;50.866;4.366;2022-12-18T01:28:10;14.10;73.80
14487;DHT22;7329;50.866;4.366;2022-12-18T01:30:12;14.20;73.40
14487;DHT22;7329;50.866;4.366;2022-12-18T01:32:15;14.20;73.50
14487;DHT22;7329;50.866;4.366;2022-12-18T01:34:17;14.10;74.10
14487;DHT22;7329;50.866;4.366;2022-12-18T01:36:21;14.20;73.40
14487;DHT22;7329;50.866;4.366;2022-12-18T01:38:24;14.20;73.80
14487;DHT22;7329;50.866;4.366;2022-12-18T01:40:26;14.20;73.60
14487;DHT22;7329;50.866;4.366;2022-12-18T01:42:30;14.10;73.40
14487;DHT22;7329;50.866;4.366;2022-12-18T01:44:55;14.20;73.60
14487;DHT22;7329;50.866;4.366;2022-12-18T01:46:58;14.10;74.00
14487;DHT22;7329;50.866;4.366;2022-12-18T01:49:01;14.10;73.90
14487;DHT22;7329;50.866;4.366;2022-12-18T01:51:04;14.10;73.70
14487;DHT22;7329;50.866;4.366;2022-12-18T01:53:13;14.10;73.60
14487;DHT22;7329;50.866;4.366;2022-12-18T01:55:19;14.10;73.90
14487;DHT22;7329;50.866;4.366;2022-12-18T01:57:23;14.10;73.20
14487;DHT22;7329;50.866;4.366;2022-12-18T01:59:27;14.10;73.80
14487;DHT22;7329;50.866;4.366;2022-12-18T02:01:30;14.10;73.80
14487;DHT22;7329;50.866;4.366;2022-12-18T02:03:33;14.10;73.70
14487;DHT22;7329;50.866;4.366;2022-12-18T02:05:44;14.10;73.20
14487;DHT22;7329;50.866;4.366;2022-12-18T02:07:58;14.10;73.60
14487;DHT22;7329;50.866;4.366;2022-12-18T02:10:07;14.10;73.50
14487;DHT22;7329;50.866;4.366;2022-12-18T02:12:17;14.20;73.00
14487;DHT22;7329;50.866;4.366;2022-12-18T02:14:26;14.10;73.40
14487;DHT22;7329;50.866;4.366;2022-12-18T02:16:38;14.10;73.50
14487;DHT22;7329;50.866;4.366;2022-12-18T02:18:45;14.10;73.10
14487;DHT22;7329;50.866;4.366;2022-12-18T02:20:52;14.10;73.30
14487;DHT22;7329;50.866;4.366;2022-12-18T02:23:04;14.00;73.20
14487;DHT22;7329;50.866;4.366;2022-12-18T02:25:21;14.10;73.40
14487;DHT22;7329;50.866;4.366;2022-12-18T02:27:30;14.00;73.30
14487;DHT22;7329;50.866;4.366;2022-12-18T02:29:38;14.10;72.80
14487;DHT22;7329;50.866;4.366;2022-12-18T02:31:44;14.00;73.00
14487;DHT22;7329;50.866;4.366;2022-12-18T02:33:48;14.00;72.90
14487;DHT22;7329;50.866;4.366;2022-12-18T02:35:52;14.00;72.70
14487;DHT22;7329;50.866;4.366;2022-12-18T02:37:56;14.00;73.00
14487;DHT22;7329;50.866;4.366;2022-12-18T02:39:59;14.00;73.10
14487;DHT22;7329;50.866;4.366;2022-12-18T02:42:02;14.00;72.90
14487;DHT22;7329;50.866;4.366;2022-12-18T02:44:12;14.00;72.70
14487;DHT22;7329;50.866;4.366;2022-12-18T02:46:25;14.00;73.20
14487;DHT22;7329;50.866;4.366;2022-12-18T02:48:30;14.00;73.90
14487;DHT22;7329;50.866;4.366;2022-12-18T02:50:37;14.10;72.70
14487;DHT22;7329;50.866;4.366;2022-12-18T02:52:48;14.00;73.20
14487;DHT22;7329;50.866;4.366;2022-12-18T02:54:57;14.00;73.10
14487;DHT22;7329;50.866;4.366;2022-12-18T02:57:08;14.00;72.90
14487;DHT22;7329;50.866;4.366;2022-12-18T02:59:21;14.00;73.20
14487;DHT22;7329;50.866;4.366;2022-12-18T03:01:33;14.00;72.80
14487;DHT22;7329;50.866;4.366;2022-12-18T03:03:41;14.00;73.20
14487;DHT22;7329;50.866;4.366;2022-12-18T03:05:51;14.00;73.30
14487;DHT22;7329;50.866;4.366;2022-12-18T03:07:57;13.90;73.20
14487;DHT22;7329;50.866;4.366;2022-12-18T03:10:00;13.90;73.10
14487;DHT22;7329;50.866;4.366;2022-12-18T03:12:06;13.90;72.80
14487;DHT22;7329;50.866;4.366;2022-12-18T03:14:29;14.00;72.20
14487;DHT22;7329;50.866;4.366;2022-12-18T03:16:34;13.90;72.90
14487;DHT22;7329;50.866;4.366;2022-12-18T03:18:40;13.90;72.80
14487;DHT22;7329;50.866;4.366;2022-12-18T03:20:46;13.90;72.80
14487;DHT22;7329;50.866;4.366;2022-12-18T03:22:53;13.90;72.50
14487;DHT22;7329;50.866;4.366;2022-12-18T03:24:57;13.90;72.20
14487;DHT22;7329;50.866;4.366;2022-12-18T03:27:02;13.90;72.40
14487;DHT22;7329;50.866;4.366;2022-12-18T03:29:10;13.90;72.50
14487;DHT22;7329;50.866;4.366;2022-12-18T03:31:16;13.90;72.50
14487;DHT22;7329;50.866;4.366;2022-12-18T03:33:25;14.00;72.40
14487;DHT22;7329;50.866;4.366;2022-12-18T03:35:30;13.90;72.70
14487;DHT22;7329;50.866;4.366;2022-12-18T03:37:32;13.90;72.00
14487;DHT22;7329;50.866;4.366;2022-12-18T03:39:35;13.90;72.70
14487;DHT22;7329;50.866;4.366;2022-12-18T03:41:43;13.90;72.30
14487;DHT22;7329;50.866;4.366;2022-12-18T03:43:50;13.90;72.40
14487;DHT22;7329;50.866;4.366;2022-12-18T03:46:00;13.90;72.80
14487;DHT22;7329;50.866;4.366;2022-12-18T03:48:08;13.90;72.30
14487;DHT22;7329;50.866;4.366;2022-12-18T03:50:17;13.90;72.70
14487;DHT22;7329;50.866;4.366;2022-12-18T03:52:26;13.90;72.70
14487;DHT22;7329;50.866;4.366;2022-12-18T03:54:30;13.90;72.20
14487;DHT22;7329;50.866;4.366;2022-12-18T03:56:37;13.90;72.10
14487;DHT22;7329;50.866;4.366;2022-12-18T03:58:41;13.80;72.50
14487;DHT22;7329;50.866;4.366;2022-12-18T04:00:46;13.80;72.40
14487;DHT22;7329;50.866;4.366;2022-12-18T04:02:52;13.80;72.40
14487;DHT22;7329;50.866;4.366;2022-12-18T04:04:59;13.80;72.10
14487;DHT22;7329;50.866;4.366;2022-12-18T04:07:03;13.80;72.20
14487;DHT22;7329;50.866;4.366;2022-12-18T04:09:06;13.80;72.30
14487;DHT22;7329;50.866;4.366;2022-12-18T04:11:09;13.80;72.20
14487;DHT22;7329;50.866;4.366;2022-12-18T04:13:11;13.80;72.10
14487;DHT22;7329;50.866;4.366;2022-12-18T04:15:14;13.80;72.40
14487;DHT22;7329;50.866;4.366;2022-12-18T04:17:17;13.80;71.60
14487;DHT22;7329;50.866;4.366;2022-12-18T04:19:19;13.80;72.20
14487;DHT22;7329;50.866;4.366;2022-12-18T04:21:23;13.80;72.50
14487;DHT22;7329;50.866;4.366;2022-12-18T04:23:25;13.80;72.20
14487;DHT22;7329;50.866;4.366;2022-12-18T04:25:27;13.80;72.40
14487;DHT22;7329;50.866;4.366;2022-12-18T04:27:30;13.80;72.20
14487;DHT22;7329;50.866;4.366;2022-12-18T04:29:32;13.80;71.80
14487;DHT22;7329;50.866;4.366;2022-12-18T04:31:34;13.80;72.40
14487;DHT22;7329;50.866;4.366;2022-12-18T04:33:37;13.80;72.00
14487;DHT22;7329;50.866;4.366;2022-12-18T04:35:40;13.70;72.20
14487;DHT22;7329;50.866;4.366;2022-12-18T04:37:43;13.70;72.30
14487;DHT22;7329;50.866;4.366;2022-12-18T04:39:46;13.80;71.50
14487;DHT22;7329;50.866;4.366;2022-12-18T04:41:48;13.70;71.80
14487;DHT22;7329;50.866;4.366;2022-12-18T04:43:51;13.70;72.00
14487;DHT22;7329;50.866;4.366;2022-12-18T04:45:53;13.70;71.70
14487;DHT22;7329;50.866;4.366;2022-12-18T04:47:57;13.70;72.10
14487;DHT22;7329;50.866;4.366;2022-12-18T04:49:59;13.70;72.10
14487;DHT22;7329;50.866;4.366;2022-12-18T04:52:02;13.70;72.10
14487;DHT22;7329;50.866;4.366;2022-12-18T04:54:05;13.70;72.00
14487;DHT22;7329;50.866;4.366;2022-12-18T04:56:10;13.70;71.80
14487;DHT22;7329;50.866;4.366;2022-12-18T04:58:12;13.70;71.60
14487;DHT22;7329;50.866;4.366;2022-12-18T05:00:15;13.80;71.20
14487;DHT22;7329;50.866;4.366;2022-12-18T05:02:17;13.80;71.40
14487;DHT22;7329;50.866;4.366;2022-12-18T05:04:20;13.70;71.30
14487;DHT22;7329;50.866;4.366;2022-12-18T05:06:22;13.80;71.40
14487;DHT22;7329;50.866;4.366;2022-12-18T05:08:25;13.70;71.50
14487;DHT22;7329;50.866;4.366;2022-12-18T05:10:28;13.70;71.70
14487;DHT22;7329;50.866;4.366;2022-12-18T05:12:31;13.70;71.30
14487;DHT22;7329;50.866;4.366;2022-12-18T05:14:33;13.70;71.70
14487;DHT22;7329;50.866;4.366;2022-12-18T05:16:36;13.70;71.40
14487;DHT22;7329;50.866;4.366;2022-12-18T05:18:38;13.70;71.30
14487;DHT22;7329;50.866;4.366;2022-12-18T05:20:40;13.70;71.60
14487;DHT22;7329;50.866;4.366;2022-12-18T05:22:42;13.70;71.40
14487;DHT22;7329;50.866;4.366;2022-12-18T05:24:45;13.70;71.30
14487;DHT22;7329;50.866;4.366;2022-12-18T05:26:49;13.70;71.80
14487;DHT22;7329;50.866;4.366;2022-12-18T05:28:52;13.70;71.50
14487;DHT22;7329;50.866;4.366;2022-12-18T05:30:56;13.70;71.40
14487;DHT22;7329;50.866;4.366;2022-12-18T05:32:59;13.70;71.60
14487;DHT22;7329;50.866;4.366;2022-12-18T05:35:01;13.70;71.40
14487;DHT22;7329;50.866;4.366;2022-12-18T05:37:04;13.70;71.70
14487;DHT22;7329;50.866;4.366;2022-12-18T05:39:07;13.70;72.10
14487;DHT22;7329;50.866;4.366;2022-12-18T05:41:09;13.70;71.30
14487;DHT22;7329;50.866;4.366;2022-12-18T05:43:13;13.70;71.90
14487;DHT22;7329;50.866;4.366;2022-12-18T05:45:15;13.60;71.30
14487;DHT22;7329;50.866;4.366;2022-12-18T05:47:18;13.60;71.10
14487;DHT22;7329;50.866;4.366;2022-12-18T05:49:20;13.70;71.40
14487;DHT22;7329;50.866;4.366;2022-12-18T05:51:22;13.70;71.30
14487;DHT22;7329;50.866;4.366;2022-12-18T05:53:25;13.60;71.30
14487;DHT22;7329;50.866;4.366;2022-12-18T05:55:27;13.70;71.70
14487;DHT22;7329;50.866;4.366;2022-12-18T05:57:29;13.60;72.20
14487;DHT22;7329;50.866;4.366;2022-12-18T05:59:33;13.60;71.60
14487;DHT22;7329;50.866;4.366;2022-12-18T06:01:36;13.60;71.30
14487;DHT22;7329;50.866;4.366;2022-12-18T06:03:38;13.60;71.20
14487;DHT22;7329;50.866;4.366;2022-12-18T06:05:41;13.60;71.30
14487;DHT22;7329;50.866;4.366;2022-12-18T06:07:44;13.60;71.30
14487;DHT22;7329;50.866;4.366;2022-12-18T06:09:47;13.60;71.20
14487;DHT22;7329;50.866;4.366;2022-12-18T06:11:51;13.60;70.60
14487;DHT22;7329;50.866;4.366;2022-12-18T06:13:54;13.60;70.60
14487;DHT22;7329;50.866;4.366;2022-12-18T06:16:02;13.60;70.80
14487;DHT22;7329;50.866;4.366;2022-12-18T06:18:04;13.60;71.30
14487;DHT22;7329;50.866;4.366;2022-12-18T06:20:07;13.60;70.90
14487;DHT22;7329;50.866;4.366;2022-12-18T06:22:10;13.60;71.10
14487;DHT22;7329;50.866;4.366;2022-12-18T06:24:12;13.60;71.20
14487;DHT22;7329;50.866;4.366;2022-12-18T06:26:14;13.60;70.80
14487;DHT22;7329;50.866;4.366;2022-12-18T06:28:17;13.60;70.90
14487;DHT22;7329;50.866;4.366;2022-12-18T06:30:19;13.50;71.00
14487;DHT22;7329;50.866;4.366;2022-12-18T06:32:23;13.60;70.80
14487;DHT22;7329;50.866;4.366;2022-12-18T06:34:26;13.50;70.90
14487;DHT22;7329;50.866;4.366;2022-12-18T06:36:28;13.60;71.30
14487;DHT22;7329;50.866;4.366;2022-12-18T06:38:32;13.60;70.90
14487;DHT22;7329;50.866;4.366;2022-12-18T06:40:37;13.50;71.40
14487;DHT22;7329;50.866;4.366;2022-12-18T06:42:39;13.50;71.20
14487;DHT22;7329;50.866;4.366;2022-12-18T06:44:42;13.60;70.70
14487;DHT22;7329;50.866;4.366;2022-12-18T06:46:44;13.50;70.70
14487;DHT22;7329;50.866;4.366;2022-12-18T06:48:49;13.50;71.00
14487;DHT22;7329;50.866;4.366;2022-12-18T06:50:51;13.50;70.20
14487;DHT22;7329;50.866;4.366;2022-12-18T06:52:54;13.60;70.60
14487;DHT22;7329;50.866;4.366;2022-12-18T06:54:56;13.50;70.70
14487;DHT22;7329;50.866;4.366;2022-12-18T06:56:58;13.50;70.40
14487;DHT22;7329;50.866;4.366;2022-12-18T06:59:01;13.60;70.60
14487;DHT22;7329;50.866;4.366;2022-12-18T07:01:05;13.50;70.70
14487;DHT22;7329;50.866;4.366;2022-12-18T07:03:07;13.50;70.80
14487;DHT22;7329;50.866;4.366;2022-12-18T07:05:11;13.50;70.40
14487;DHT22;7329;50.866;4.366;2022-12-18T07:07:14;13.50;70.40
14487;DHT22;7329;50.866;4.366;2022-12-18T07:09:16;13.50;70.70
14487;DHT22;7329;50.866;4.366;2022-12-18T07:11:19;13.50;70.70
14487;DHT22;7329;50.866;4.366;2022-12-18T07:13:21;13.50;70.60
14487;DHT22;7329;50.866;4.366;2022-12-18T07:15:23;13.50;70.20
14487;DHT22;7329;50.866;4.366;2022-12-18T07:17:26;13.50;70.50
14487;DHT22;7329;50.866;4.366;2022-12-18T07:19:29;13.50;71.40
14487;DHT22;7329;50.866;4.366;2022-12-18T07:21:33;13.50;70.60
14487;DHT22;7329;50.866;4.366;2022-12-18T07:23:35;13.50;70.40
14487;DHT22;7329;50.866;4.366;2022-12-18T07:25:38;13.50;70.50
14487;DHT22;7329;50.866;4.366;2022-12-18T07:27:40;13.50;69.60
14487;DHT22;7329;50.866;4.366;2022-12-18T07:29:43;13.60;69.00
14487;DHT22;7329;50.866;4.366;2022-12-18T07:31:45;13.60;68.50
14487;DHT22;7329;50.866;4.366;2022-12-18T07:33:48;13.50;68.30
14487;DHT22;7329;50.866;4.366;2022-12-18T07:35:52;13.50;68.30
14487;DHT22;7329;50.866;4.366;2022-12-18T07:37:56;13.60;68.40
14487;DHT22;7329;50.866;4.366;2022-12-18T07:39:58;13.60;69.30
14487;DHT22;7329;50.866;4.366;2022-12-18T07:42:00;13.60;69.40
14487;DHT22;7329;50.866;4.366;2022-12-18T07:44:20;13.60;69.40
14487;DHT22;7329;50.866;4.366;2022-12-18T07:46:22;13.60;69.20
14487;DHT22;7329;50.866;4.366;2022-12-18T07:48:25;13.70;69.40
14487;DHT22;7329;50.866;4.366;2022-12-18T07:50:28;13.70;69.00
14487;DHT22;7329;50.866;4.366;2022-12-18T07:52:30;13.70;69.10
14487;DHT22;7329;50.866;4.366;2022-12-18T07:54:34;13.80;69.20
14487;DHT22;7329;50.866;4.366;2022-12-18T07:56:36;13.80;69.10
14487;DHT22;7329;50.866;4.366;2022-12-18T07:58:38;13.80;69.00
14487;DHT22;7329;50.866;4.366;2022-12-18T08:00:41;13.80;68.60
14487;DHT22;7329;50.866;4.366;2022-12-18T08:02:43;13.80;69.20
14487;DHT22;7329;50.866;4.366;2022-12-18T08:04:45;13.80;69.30
14487;DHT22;7329;50.866;4.366;2022-12-18T08:06:48;13.80;69.20
14487;DHT22;7329;50.866;4.366;2022-12-18T08:08:51;13.80;69.50
14487;DHT22;7329;50.866;4.366;2022-12-18T08:10:55;13.80;69.90
14487;DHT22;7329;50.866;4.366;2022-12-18T08:12:57;13.80;69.70
14487;DHT22;7329;50.866;4.366;2022-12-18T08:15:00;13.80;70.20
14487;DHT22;7329;50.866;4.366;2022-12-18T08:17:02;13.80;69.90
14487;DHT22;7329;50.866;4.366;2022-12-18T08:19:05;13.80;70.00
14487;DHT22;7329;50.866;4.366;2022-12-18T08:21:08;13.80;69.60
14487;DHT22;7329;50.866;4.366;2022-12-18T08:23:11;13.80;70.10
14487;DHT22;7329;50.866;4.366;2022-12-18T08:25:13;13.80;70.00
14487;DHT22;7329;50.866;4.366;2022-12-18T08:27:17;13.80;69.90
14487;DHT22;7329;50.866;4.366;2022-12-18T08:29:19;13.70;69.60
14487;DHT22;7329;50.866;4.366;2022-12-18T08:31:22;13.80;69.80
14487;DHT22;7329;50.866;4.366;2022-12-18T08:33:25;13.70;69.30
14487;DHT22;7329;50.866;4.366;2022-12-18T08:35:28;13.80;69.70
14487;DHT22;7329;50.866;4.366;2022-12-18T08:37:30;13.70;69.70
14487;DHT22;7329;50.866;4.366;2022-12-18T08:39:32;13.70;69.50
14487;DHT22;7329;50.866;4.366;2022-12-18T08:41:35;13.70;69.40
14487;DHT22;7329;50.866;4.366;2022-12-18T08:43:39;13.70;69.70
14487;DHT22;7329;50.866;4.366;2022-12-18T08:45:59;13.80;69.70
14487;DHT22;7329;50.866;4.366;2022-12-18T08:48:01;13.80;70.30
14487;DHT22;7329;50.866;4.366;2022-12-18T08:50:04;13.80;69.10
14487;DHT22;7329;50.866;4.366;2022-12-18T08:52:07;13.80;69.40
14487;DHT22;7329;50.866;4.366;2022-12-18T08:54:11;13.80;69.00
14487;DHT22;7329;50.866;4.366;2022-12-18T08:56:15;13.80;68.60
14487;DHT22;7329;50.866;4.366;2022-12-18T08:58:17;13.80;68.60
14487;DHT22;7329;50.866;4.366;2022-12-18T09:00:21;13.80;69.50
14487;DHT22;7329;50.866;4.366;2022-12-18T09:02:24;13.80;69.40
14487;DHT22;7329;50.866;4.366;2022-12-18T09:04:26;13.80;69.10
14487;DHT22;7329;50.866;4.366;2022-12-18T09:06:28;13.80;68.70
14487;DHT22;7329;50.866;4.366;2022-12-18T09:08:31;13.80;68.60
14487;DHT22;7329;50.866;4.366;2022-12-18T09:10:34;13.80;68.60
14487;DHT22;7329;50.866;4.366;2022-12-18T09:12:36;13.80;69.20
14487;DHT22;7329;50.866;4.366;2022-12-18T09:14:38;13.80;68.60
14487;DHT22;7329;50.866;4.366;2022-12-18T09:16:42;13.80;69.20
14487;DHT22;7329;50.866;4.366;2022-12-18T09:18:44;13.80;69.10
14487;DHT22;7329;50.866;4.366;2022-12-18T09:20:47;13.80;69.00
14487;DHT22;7329;50.866;4.366;2022-12-18T09:22:51;13.80;69.70
14487;DHT22;7329;50.866;4.366;2022-12-18T09:24:53;13.80;68.90
14487;DHT22;7329;50.866;4.366;2022-12-18T09:26:55;13.80;68.90
14487;DHT22;7329;50.866;4.366;2022-12-18T09:28:58;13.80;70.00
14487;DHT22;7329;50.866;4.366;2022-12-18T09:31:04;13.80;69.40
14487;DHT22;7329;50.866;4.366;2022-12-18T09:33:09;13.80;69.20
14487;DHT22;7329;50.866;4.366;2022-12-18T09:35:12;13.80;69.60
14487;DHT22;7329;50.866;4.366;2022-12-18T09:37:15;13.80;69.70
14487;DHT22;7329;50.866;4.366;2022-12-18T09:39:17;13.90;69.50
14487;DHT22;7329;50.866;4.366;2022-12-18T09:41:37;13.90;69.30
14487;DHT22;7329;50.866;4.366;2022-12-18T09:43:44;13.80;69.70
14487;DHT22;7329;50.866;4.366;2022-12-18T09:45:51;13.80;69.90
14487;DHT22;7329;50.866;4.366;2022-12-18T09:47:54;13.80;70.20
14487;DHT22;7329;50.866;4.366;2022-12-18T09:50:01;13.80;70.30
14487;DHT22;7329;50.866;4.366;2022-12-18T09:52:08;13.80;70.10
14487;DHT22;7329;50.866;4.366;2022-12-18T09:54:14;13.80;71.00
14487;DHT22;7329;50.866;4.366;2022-12-18T09:56:19;13.70;68.50
14487;DHT22;7329;50.866;4.366;2022-12-18T09:58:28;13.50;68.30
14487;DHT22;7329;50.866;4.366;2022-12-18T10:00:32;13.60;69.50
14487;DHT22;7329;50.866;4.366;2022-12-18T10:02:34;13.60;69.50
14487;DHT22;7329;50.866;4.366;2022-12-18T10:04:37;13.60;69.70
14487;DHT22;7329;50.866;4.366;2022-12-18T10:06:44;13.70;70.00
14487;DHT22;7329;50.866;4.366;2022-12-18T10:08:51;13.70;70.30
14487;DHT22;7329;50.866;4.366;2022-12-18T10:10:59;13.70;70.20
14487;DHT22;7329;50.866;4.366;2022-12-18T10:13:12;13.80;70.10
14487;DHT22;7329;50.866;4.366;2022-12-18T10:15:20;13.80;69.50
14487;DHT22;7329;50.866;4.366;2022-12-18T10:17:30;13.80;69.50
14487;DHT22;7329;50.866;4.366;2022-12-18T10:19:40;13.80;69.20
14487;DHT22;7329;50.866;4.366;2022-12-18T10:21:58;13.80;70.20
14487;DHT22;7329;50.866;4.366;2022-12-18T10:24:14;13.80;69.90
14487;DHT22;7329;50.866;4.366;2022-12-18T10:26:18;13.90;70.10
14487;DHT22;7329;50.866;4.366;2022-12-18T10:28:21;13.80;69.80
14487;DHT22;7329;50.866;4.366;2022-12-18T10:30:26;13.80;70.40
14487;DHT22;7329;50.866;4.366;2022-12-18T10:32:30;13.90;70.20
14487;DHT22;7329;50.866;4.366;2022-12-18T10:34:32;13.90;70.10
14487;DHT22;7329;50.866;4.366;2022-12-18T10:36:35;13.90;71.00
14487;DHT22;7329;50.866;4.366;2022-12-18T10:38:38;13.90;69.80
14487;DHT22;7329;50.866;4.366;2022-12-18T10:40:49;13.90;70.20
14487;DHT22;7329;50.866;4.366;2022-12-18T10:43:03;13.90;70.30
14487;DHT22;7329;50.866;4.366;2022-12-18T10:45:11;13.90;70.60
14487;DHT22;7329;50.866;4.366;2022-12-18T10:47:15;13.90;70.70
14487;DHT22;7329;50.866;4.366;2022-12-18T10:49:23;13.80;70.90
14487;DHT22;7329;50.866;4.366;2022-12-18T10:51:28;13.90;70.80
14487;DHT22;7329;50.866;4.366;2022-12-18T10:53:32;13.90;70.80
14487;DHT22;7329;50.866;4.366;2022-12-18T10:55:38;13.90;70.50
14487;DHT22;7329;50.866;4.366;2022-12-18T10:57:41;13.90;70.10
14487;DHT22;7329;50.866;4.366;2022-12-18T10:59:52;13.90;71.10
14487;DHT22;7329;50.866;4.366;2022-12-18T11:01:57;13.90;70.50
14487;DHT22;7329;50.866;4.366;2022-12-18T11:04:01;13.90;71.30
14487;DHT22;7329;50.866;4.366;2022-12-18T11:06:07;13.90;71.00
14487;DHT22;7329;50.866;4.366;2022-12-18T11:08:20;13.90;71.10
14487;DHT22;7329;50.866;4.366;2022-12-18T11:10:28;13.90;70.90
14487;DHT22;7329;50.866;4.366;2022-12-18T11:12:33;13.90;71.00
14487;DHT22;7329;50.866;4.366;2022-12-18T11:14:43;13.90;70.70
14487;DHT22;7329;50.866;4.366;2022-12-18T11:16:47;13.90;70.80
14487;DHT22;7329;50.866;4.366;2022-12-18T11:18:50;13.90;70.70
14487;DHT22;7329;50.866;4.366;2022-12-18T11:20:54;13.90;70.80
14487;DHT22;7329;50.866;4.366;2022-12-18T11:22:59;13.90;71.40
14487;DHT22;7329;50.866;4.366;2022-12-18T11:25:05;13.90;70.90
14487;DHT22;7329;50.866;4.366;2022-12-18T11:27:17;13.90;70.70
14487;DHT22;7329;50.866;4.366;2022-12-18T11:29:29;13.90;71.20
14487;DHT22;7329;50.866;4.366;2022-12-18T11:31:33;13.90;71.00
14487;DHT22;7329;50.866;4.366;2022-12-18T11:33:37;13.90;70.70
14487;DHT22;7329;50.866;4.366;2022-12-18T11:35:47;13.90;71.20
14487;DHT22;7329;50.866;4.366;2022-12-18T11:37:54;13.90;71.10
14487;DHT22;7329;50.866;4.366;2022-12-18T11:40:03;13.90;71.60
14487;DHT22;7329;50.866;4.366;2022-12-18T11:42:12;13.90;71.30
14487;DHT22;7329;50.866;4.366;2022-12-18T11:44:25;13.90;71.20
14487;DHT22;7329;50.866;4.366;2022-12-18T11:46:33;13.90;71.60
14487;DHT22;7329;50.866;4.366;2022-12-18T11:48:41;13.90;71.80
14487;DHT22;7329;50.866;4.366;2022-12-18T11:50:49;13.90;71.60
14487;DHT22;7329;50.866;4.366;2022-12-18T11:52:52;13.90;71.50
14487;DHT22;7329;50.866;4.366;2022-12-18T11:54:56;13.90;71.70
14487;DHT22;7329;50.866;4.366;2022-12-18T11:57:10;13.80;71.60
14487;DHT22;7329;50.866;4.366;2022-12-18T11:59:21;13.90;71.60
14487;DHT22;7329;50.866;4.366;2022-12-18T12:01:39;13.90;71.60
14487;DHT22;7329;50.866;4.366;2022-12-18T12:04:12;13.90;72.00
14487;DHT22;7329;50.866;4.366;2022-12-18T12:06:21;13.90;71.80
14487;DHT22;7329;50.866;4.366;2022-12-18T12:08:33;13.90;71.40
14487;DHT22;7329;50.866;4.366;2022-12-18T12:10:46;13.90;71.60
14487;DHT22;7329;50.866;4.366;2022-12-18T12:13:04;13.90;71.60
14487;DHT22;7329;50.866;4.366;2022-12-18T12:15:16;13.90;72.30
14487;DHT22;7329;50.866;4.366;2022-12-18T12:17:30;13.90;71.60
14487;DHT22;7329;50.866;4.366;2022-12-18T12:19:42;13.90;71.60
14487;DHT22;7329;50.866;4.366;2022-12-18T12:21:49;13.90;71.60
14487;DHT22;7329;50.866;4.366;2022-12-18T12:24:00;13.90;71.60
14487;DHT22;7329;50.866;4.366;2022-12-18T12:26:07;13.90;72.80
14487;DHT22;7329;50.866;4.366;2022-12-18T12:28:19;13.90;72.20
14487;DHT22;7329;50.866;4.366;2022-12-18T12:30:30;13.90;71.80
14487;DHT22;7329;50.866;4.366;2022-12-18T12:32:48;13.90;72.30
14487;DHT22;7329;50.866;4.366;2022-12-18T12:35:02;13.90;71.80
14487;DHT22;7329;50.866;4.366;2022-12-18T12:37:18;13.90;72.30
14487;DHT22;7329;50.866;4.366;2022-12-18T12:39:24;13.90;72.20
14487;DHT22;7329;50.866;4.366;2022-12-18T12:41:32;13.90;71.70
14487;DHT22;7329;50.866;4.366;2022-12-18T12:43:57;13.90;72.10
14487;DHT22;7329;50.866;4.366;2022-12-18T12:46:04;13.90;72.20
14487;DHT22;7329;50.866;4.366;2022-12-18T12:48:16;13.90;72.00
14487;DHT22;7329;50.866;4.366;2022-12-18T12:50:20;13.90;72.20
14487;DHT22;7329;50.866;4.366;2022-12-18T12:52:29;13.90;71.80
14487;DHT22;7329;50.866;4.366;2022-12-18T12:54:34;13.90;72.10
14487;DHT22;7329;50.866;4.366;2022-12-18T12:56:39;13.90;72.20
14487;DHT22;7329;50.866;4.366;2022-12-18T12:58:54;13.90;72.20
14487;DHT22;7329;50.866;4.366;2022-12-18T13:01:08;13.90;72.90
14487;DHT22;7329;50.866;4.366;2022-12-18T13:03:23;13.90;72.40
14487;DHT22;7329;50.866;4.366;2022-12-18T13:05:34;13.90;72.60
14487;DHT22;7329;50.866;4.366;2022-12-18T13:07:46;13.90;72.50
14487;DHT22;7329;50.866;4.366;2022-12-18T13:10:13;13.90;72.70
14487;DHT22;7329;50.866;4.366;2022-12-18T13:12:16;13.90;72.80
14487;DHT22;7329;50.866;4.366;2022-12-18T13:14:37;13.90;72.60
14487;DHT22;7329;50.866;4.366;2022-12-18T13:16:40;13.90;72.80
14487;DHT22;7329;50.866;4.366;2022-12-18T13:18:49;13.90;72.20
14487;DHT22;7329;50.866;4.366;2022-12-18T13:21:03;13.90;72.90
14487;DHT22;7329;50.866;4.366;2022-12-18T13:23:27;13.90;72.90
14487;DHT22;7329;50.866;4.366;2022-12-18T13:25:32;13.90;73.00